Strona główna
METAR-TAF:

METAR-TAF

Lotnisko :

Linden, New Jersey, Stany Zjednoczone

Szerokość geograficzna: 40-37-03N, Długość geograficzna: 074-14-40W, wysokość: 7 m

Aktualna obserwacja pogody

Raport powstał 19 minut temu, godzina 21:55 UTC
Cisza
Temperatura 5°C
Wilgotność 56%
Ciśnienie 1030 hPa
Widzialność: 16.1 km
bezchmurnie

METAR: KLDJ 082155Z AUTO 00000KT 10SM CLR 05/M03 A3042 RMK AO2 T00451035

czas: 17:14 (22:14 UTC)


TAF: brakujący

Obserwacja i prognoza pogody dla ponad 4000 lotnisk (raport METAR i TAF).

Dostępne stacje oznaczono żółtymi i czerwonymi punktami na mapie.

Najedź kursorem aby zobaczyć nazwę stacji.

Kliknij aby zobaczyć obserwacje i prognozy pogody.

Aby zmienić mapę: kliknij na zielony przycisk z czarnym krzyżykiem, aby powiększyć; na zielony przycisk z myślnikiem, aby pomniejszyć; na zielone strzałki, aby przejść do map sąsiednich.


METAR-TAF: